sensor_id;sensor_type;location;lat;lon;timestamp;pressure;altitude;pressure_sealevel;temperature
72675;BMP280;60752;53.962;9.614;2023-03-01T00:03:52;102973.91;;;0.30
72675;BMP280;60752;53.962;9.614;2023-03-01T00:09:13;102962.94;;;0.28
72675;BMP280;60752;53.962;9.614;2023-03-01T00:14:35;102953.84;;;0.24
72675;BMP280;60752;53.962;9.614;2023-03-01T00:19:56;102960.09;;;0.22
72675;BMP280;60752;53.962;9.614;2023-03-01T00:25:16;102960.09;;;0.22
72675;BMP280;60752;53.962;9.614;2023-03-01T00:30:39;102961.47;;;0.16
72675;BMP280;60752;53.962;9.614;2023-03-01T00:36:00;102965.25;;;0.12
72675;BMP280;60752;53.962;9.614;2023-03-01T00:41:22;102962.81;;;0.11
72675;BMP280;60752;53.962;9.614;2023-03-01T00:46:44;102969.72;;;0.20
72675;BMP280;60752;53.962;9.614;2023-03-01T00:52:05;102956.59;;;0.23
72675;BMP280;60752;53.962;9.614;2023-03-01T00:57:25;102961.28;;;0.27
72675;BMP280;60752;53.962;9.614;2023-03-01T01:02:48;102953.56;;;0.27
72675;BMP280;60752;53.962;9.614;2023-03-01T01:08:09;102966.56;;;0.35
72675;BMP280;60752;53.962;9.614;2023-03-01T01:13:29;102964.63;;;0.38
72675;BMP280;60752;53.962;9.614;2023-03-01T01:18:52;102970.03;;;0.44
72675;BMP280;60752;53.962;9.614;2023-03-01T01:24:12;102968.97;;;0.47
72675;BMP280;60752;53.962;9.614;2023-03-01T01:29:33;102955.53;;;0.53
72675;BMP280;60752;53.962;9.614;2023-03-01T01:34:55;102946.84;;;0.54
72675;BMP280;60752;53.962;9.614;2023-03-01T01:40:16;102937.09;;;0.48
72675;BMP280;60752;53.962;9.614;2023-03-01T01:45:37;102937.91;;;0.48
72675;BMP280;60752;53.962;9.614;2023-03-01T01:51:00;102928.44;;;0.49
72675;BMP280;60752;53.962;9.614;2023-03-01T01:56:23;102932.63;;;0.50
72675;BMP280;60752;53.962;9.614;2023-03-01T02:01:45;102937.78;;;0.50
72675;BMP280;60752;53.962;9.614;2023-03-01T02:07:13;102925.59;;;0.52
72675;BMP280;60752;53.962;9.614;2023-03-01T02:12:35;102924.91;;;0.50
72675;BMP280;60752;53.962;9.614;2023-03-01T02:17:56;102912.81;;;0.50
72675;BMP280;60752;53.962;9.614;2023-03-01T02:23:19;102918.09;;;0.58
72675;BMP280;60752;53.962;9.614;2023-03-01T02:28:42;102916.34;;;0.59
72675;BMP280;60752;53.962;9.614;2023-03-01T02:34:04;102921.19;;;0.62
72675;BMP280;60752;53.962;9.614;2023-03-01T02:39:27;102925.69;;;0.60
72675;BMP280;60752;53.962;9.614;2023-03-01T02:44:50;102927.44;;;0.59
72675;BMP280;60752;53.962;9.614;2023-03-01T02:50:18;102924.06;;;0.59
72675;BMP280;60752;53.962;9.614;2023-03-01T02:55:43;102909.28;;;0.61
72675;BMP280;60752;53.962;9.614;2023-03-01T03:01:07;102897.75;;;0.65
72675;BMP280;60752;53.962;9.614;2023-03-01T03:06:28;102884.19;;;0.63
72675;BMP280;60752;53.962;9.614;2023-03-01T03:11:49;102870.69;;;0.51
72675;BMP280;60752;53.962;9.614;2023-03-01T03:17:11;102874.66;;;0.46
72675;BMP280;60752;53.962;9.614;2023-03-01T03:22:32;102881.03;;;0.42
72675;BMP280;60752;53.962;9.614;2023-03-01T03:27:53;102873.06;;;0.35
72675;BMP280;60752;53.962;9.614;2023-03-01T03:33:16;102879.31;;;0.32
72675;BMP280;60752;53.962;9.614;2023-03-01T03:38:36;102877.69;;;0.31
72675;BMP280;60752;53.962;9.614;2023-03-01T03:43:58;102871.59;;;0.32
72675;BMP280;60752;53.962;9.614;2023-03-01T03:49:21;102876.88;;;0.31
72675;BMP280;60752;53.962;9.614;2023-03-01T03:54:42;102873.34;;;0.32
72675;BMP280;60752;53.962;9.614;2023-03-01T04:00:03;102872.53;;;0.31
72675;BMP280;60752;53.962;9.614;2023-03-01T04:05:26;102866.72;;;0.29
72675;BMP280;60752;53.962;9.614;2023-03-01T04:10:49;102858.72;;;0.32
72675;BMP280;60752;53.962;9.614;2023-03-01T04:16:10;102857.44;;;0.37
72675;BMP280;60752;53.962;9.614;2023-03-01T04:21:32;102854.97;;;0.45
72675;BMP280;60752;53.962;9.614;2023-03-01T04:26:52;102863.38;;;0.47
72675;BMP280;60752;53.962;9.614;2023-03-01T04:32:13;102859.47;;;0.43
72675;BMP280;60752;53.962;9.614;2023-03-01T04:37:35;102866.38;;;0.42
72675;BMP280;60752;53.962;9.614;2023-03-01T04:42:56;102861.09;;;0.44
72675;BMP280;60752;53.962;9.614;2023-03-01T04:48:17;102869.19;;;0.49
72675;BMP280;60752;53.962;9.614;2023-03-01T04:53:40;102875.84;;;0.51
72675;BMP280;60752;53.962;9.614;2023-03-01T04:59:01;102877.88;;;0.48
72675;BMP280;60752;53.962;9.614;2023-03-01T05:04:23;102879.34;;;0.50
72675;BMP280;60752;53.962;9.614;2023-03-01T05:09:48;102861.31;;;0.50
72675;BMP280;60752;53.962;9.614;2023-03-01T05:15:10;102848.19;;;0.53
72675;BMP280;60752;53.962;9.614;2023-03-01T05:20:30;102849.28;;;0.51
72675;BMP280;60752;53.962;9.614;2023-03-01T05:25:56;102840.34;;;0.45
72675;BMP280;60752;53.962;9.614;2023-03-01T05:31:17;102845.63;;;0.44
72675;BMP280;60752;53.962;9.614;2023-03-01T05:36:38;102850.38;;;0.48
72675;BMP280;60752;53.962;9.614;2023-03-01T05:42:01;102850.09;;;0.51
72675;BMP280;60752;53.962;9.614;2023-03-01T05:47:21;102843.75;;;0.46
72675;BMP280;60752;53.962;9.614;2023-03-01T05:52:42;102849.00;;;0.44
72675;BMP280;60752;53.962;9.614;2023-03-01T05:58:06;102851.75;;;0.43
72675;BMP280;60752;53.962;9.614;2023-03-01T06:03:26;102845.38;;;0.37
72675;BMP280;60752;53.962;9.614;2023-03-01T06:08:47;102847.00;;;0.38
72675;BMP280;60752;53.962;9.614;2023-03-01T06:14:09;102852.16;;;0.38
72675;BMP280;60752;53.962;9.614;2023-03-01T06:19:30;102853.78;;;0.39
72675;BMP280;60752;53.962;9.614;2023-03-01T06:24:51;102849.47;;;0.40
72675;BMP280;60752;53.962;9.614;2023-03-01T06:30:15;102854.03;;;0.46
72675;BMP280;60752;53.962;9.614;2023-03-01T06:35:36;102854.16;;;0.44
72675;BMP280;60752;53.962;9.614;2023-03-01T06:40:57;102847.78;;;0.48
72675;BMP280;60752;53.962;9.614;2023-03-01T06:46:19;102839.22;;;0.57
72675;BMP280;60752;53.962;9.614;2023-03-01T06:51:40;102831.97;;;0.71
72675;BMP280;60752;53.962;9.614;2023-03-01T06:57:01;102834.34;;;0.82
72675;BMP280;60752;53.962;9.614;2023-03-01T07:02:24;102828.97;;;0.93
72675;BMP280;60752;53.962;9.614;2023-03-01T07:07:44;102832.19;;;0.95
72675;BMP280;60752;53.962;9.614;2023-03-01T07:13:05;102846.47;;;0.89
72675;BMP280;60752;53.962;9.614;2023-03-01T07:18:27;102846.78;;;0.86
72675;BMP280;60752;53.962;9.614;2023-03-01T07:23:48;102848.09;;;0.90
72675;BMP280;60752;53.962;9.614;2023-03-01T07:29:10;102835.06;;;0.92
72675;BMP280;60752;53.962;9.614;2023-03-01T07:34:34;102839.78;;;0.97
72675;BMP280;60752;53.962;9.614;2023-03-01T07:39:55;102845.31;;;1.02
72675;BMP280;60752;53.962;9.614;2023-03-01T07:45:15;102863.94;;;1.13
72675;BMP280;60752;53.962;9.614;2023-03-01T07:50:38;102870.50;;;1.26
72675;BMP280;60752;53.962;9.614;2023-03-01T07:56:03;102868.81;;;1.34
72675;BMP280;60752;53.962;9.614;2023-03-01T08:01:24;102863.34;;;1.37
72675;BMP280;60752;53.962;9.614;2023-03-01T08:06:46;102868.75;;;1.44
72675;BMP280;60752;53.962;9.614;2023-03-01T08:12:06;102871.81;;;1.48
72675;BMP280;60752;53.962;9.614;2023-03-01T08:17:27;102865.25;;;1.53
72675;BMP280;60752;53.962;9.614;2023-03-01T08:22:49;102863.84;;;1.59
72675;BMP280;60752;53.962;9.614;2023-03-01T08:28:10;102877.13;;;1.64
72675;BMP280;60752;53.962;9.614;2023-03-01T08:33:31;102871.06;;;1.73
72675;BMP280;60752;53.962;9.614;2023-03-01T08:38:53;102869.31;;;1.82
72675;BMP280;60752;53.962;9.614;2023-03-01T08:44:15;102871.16;;;1.89
72675;BMP280;60752;53.962;9.614;2023-03-01T08:49:35;102864.72;;;1.93
72675;BMP280;60752;53.962;9.614;2023-03-01T08:54:57;102865.06;;;1.98
72675;BMP280;60752;53.962;9.614;2023-03-01T09:00:19;102869.78;;;2.03
72675;BMP280;60752;53.962;9.614;2023-03-01T09:05:40;102865.91;;;2.07
72675;BMP280;60752;53.962;9.614;2023-03-01T09:11:02;102870.34;;;2.15
72675;BMP280;60752;53.962;9.614;2023-03-01T09:16:23;102877.75;;;2.18
72675;BMP280;60752;53.962;9.614;2023-03-01T09:21:44;102873.75;;;2.23
72675;BMP280;60752;53.962;9.614;2023-03-01T09:27:06;102872.47;;;2.27
72675;BMP280;60752;53.962;9.614;2023-03-01T09:32:29;102871.03;;;2.33
72675;BMP280;60752;53.962;9.614;2023-03-01T09:37:51;102873.34;;;2.36
72675;BMP280;60752;53.962;9.614;2023-03-01T09:43:19;102876.13;;;2.43
72675;BMP280;60752;53.962;9.614;2023-03-01T09:48:48;102888.06;;;2.52
72675;BMP280;60752;53.962;9.614;2023-03-01T09:54:11;102883.69;;;2.52
72675;BMP280;60752;53.962;9.614;2023-03-01T09:59:44;102888.25;;;2.59
72675;BMP280;60752;53.962;9.614;2023-03-01T10:05:23;102894.94;;;4.93
72675;BMP280;60752;53.962;9.614;2023-03-01T10:10:47;102894.53;;;4.58
72675;BMP280;60752;53.962;9.614;2023-03-01T10:16:13;102884.88;;;5.13
72675;BMP280;60752;53.962;9.614;2023-03-01T10:21:41;102896.47;;;7.13
72675;BMP280;60752;53.962;9.614;2023-03-01T10:27:06;102891.00;;;5.72
72675;BMP280;60752;53.962;9.614;2023-03-01T10:32:29;102872.97;;;4.80
72675;BMP280;60752;53.962;9.614;2023-03-01T10:37:58;102862.25;;;4.30
72675;BMP280;60752;53.962;9.614;2023-03-01T10:43:19;102860.03;;;4.18
72675;BMP280;60752;53.962;9.614;2023-03-01T10:48:41;102864.81;;;3.99
72675;BMP280;60752;53.962;9.614;2023-03-01T10:54:09;102857.56;;;3.86
72675;BMP280;60752;53.962;9.614;2023-03-01T10:59:37;102860.53;;;3.66
72675;BMP280;60752;53.962;9.614;2023-03-01T11:05:02;102856.97;;;3.59
72675;BMP280;60752;53.962;9.614;2023-03-01T11:10:25;102859.09;;;3.48
72675;BMP280;60752;53.962;9.614;2023-03-01T11:15:58;102845.00;;;3.66
72675;BMP280;60752;53.962;9.614;2023-03-01T11:21:20;102844.78;;;3.84
72675;BMP280;60752;53.962;9.614;2023-03-01T11:26:42;102840.72;;;3.90
72675;BMP280;60752;53.962;9.614;2023-03-01T11:32:08;102839.44;;;3.86
72675;BMP280;60752;53.962;9.614;2023-03-01T11:37:36;102841.66;;;3.97
72675;BMP280;60752;53.962;9.614;2023-03-01T11:43:06;102838.69;;;4.08
72675;BMP280;60752;53.962;9.614;2023-03-01T11:48:44;102828.63;;;4.21
72675;BMP280;60752;53.962;9.614;2023-03-01T11:54:13;102815.66;;;4.21
72675;BMP280;60752;53.962;9.614;2023-03-01T11:59:58;102809.50;;;4.22
72675;BMP280;60752;53.962;9.614;2023-03-01T12:05:51;102817.03;;;4.32
72675;BMP280;60752;53.962;9.614;2023-03-01T12:11:26;102812.47;;;4.42
72675;BMP280;60752;53.962;9.614;2023-03-01T12:17:07;102813.63;;;4.32
72675;BMP280;60752;53.962;9.614;2023-03-01T12:22:35;102819.16;;;4.29
72675;BMP280;60752;53.962;9.614;2023-03-01T12:28:18;102822.97;;;4.10
72675;BMP280;60752;53.962;9.614;2023-03-01T12:33:47;102814.63;;;4.00
72675;BMP280;60752;53.962;9.614;2023-03-01T12:39:21;102806.78;;;4.16
72675;BMP280;60752;53.962;9.614;2023-03-01T12:44:57;102803.66;;;4.20
72675;BMP280;60752;53.962;9.614;2023-03-01T12:50:23;102790.88;;;3.80
72675;BMP280;60752;53.962;9.614;2023-03-01T12:55:46;102785.84;;;3.86
72675;BMP280;60752;53.962;9.614;2023-03-01T13:01:19;102782.56;;;4.01
72675;BMP280;60752;53.962;9.614;2023-03-01T13:06:47;102781.66;;;4.16
72675;BMP280;60752;53.962;9.614;2023-03-01T13:12:46;102776.13;;;4.28
72675;BMP280;60752;53.962;9.614;2023-03-01T13:18:32;102775.47;;;4.26
72675;BMP280;60752;53.962;9.614;2023-03-01T13:23:53;102754.56;;;4.27
72675;BMP280;60752;53.962;9.614;2023-03-01T13:29:26;102752.09;;;4.34
72675;BMP280;60752;53.962;9.614;2023-03-01T13:34:56;102746.78;;;4.27
72675;BMP280;60752;53.962;9.614;2023-03-01T13:40:58;102738.56;;;4.15
72675;BMP280;60752;53.962;9.614;2023-03-01T13:46:21;102728.50;;;4.20
72675;BMP280;60752;53.962;9.614;2023-03-01T13:51:47;102726.72;;;4.21
72675;BMP280;60752;53.962;9.614;2023-03-01T13:57:20;102728.19;;;4.23
72675;BMP280;60752;53.962;9.614;2023-03-01T14:02:41;102719.94;;;4.20
72675;BMP280;60752;53.962;9.614;2023-03-01T14:08:05;102716.53;;;4.19
72675;BMP280;60752;53.962;9.614;2023-03-01T14:13:36;102715.41;;;4.22
72675;BMP280;60752;53.962;9.614;2023-03-01T14:19:15;102699.78;;;4.30
72675;BMP280;60752;53.962;9.614;2023-03-01T14:24:46;102699.59;;;4.32
72675;BMP280;60752;53.962;9.614;2023-03-01T14:30:11;102685.03;;;4.31
72675;BMP280;60752;53.962;9.614;2023-03-01T14:35:35;102684.53;;;4.35
72675;BMP280;60752;53.962;9.614;2023-03-01T14:40:59;102678.53;;;4.35
72675;BMP280;60752;53.962;9.614;2023-03-01T14:46:25;102682.91;;;4.34
72675;BMP280;60752;53.962;9.614;2023-03-01T14:51:52;102673.97;;;4.37
72675;BMP280;60752;53.962;9.614;2023-03-01T14:57:18;102677.84;;;4.41
72675;BMP280;60752;53.962;9.614;2023-03-01T15:02:39;102675.47;;;4.31
72675;BMP280;60752;53.962;9.614;2023-03-01T15:08:03;102667.19;;;4.36
72675;BMP280;60752;53.962;9.614;2023-03-01T15:13:30;102670.06;;;4.41
72675;BMP280;60752;53.962;9.614;2023-03-01T15:18:56;102667.47;;;4.41
72675;BMP280;60752;53.962;9.614;2023-03-01T15:24:20;102669.41;;;4.39
72675;BMP280;60752;53.962;9.614;2023-03-01T15:29:47;102661.94;;;4.44
72675;BMP280;60752;53.962;9.614;2023-03-01T15:35:38;102661.13;;;4.43
72675;BMP280;60752;53.962;9.614;2023-03-01T15:41:01;102656.81;;;4.36
72675;BMP280;60752;53.962;9.614;2023-03-01T15:46:25;102657.81;;;4.35
72675;BMP280;60752;53.962;9.614;2023-03-01T15:51:47;102652.16;;;4.31
72675;BMP280;60752;53.962;9.614;2023-03-01T15:57:12;102655.28;;;4.27
72675;BMP280;60752;53.962;9.614;2023-03-01T16:02:34;102662.44;;;4.24
72675;BMP280;60752;53.962;9.614;2023-03-01T16:07:55;102666.69;;;4.17
72675;BMP280;60752;53.962;9.614;2023-03-01T16:13:15;102657.19;;;4.10
72675;BMP280;60752;53.962;9.614;2023-03-01T16:18:37;102653.34;;;4.06
72675;BMP280;60752;53.962;9.614;2023-03-01T16:23:58;102655.63;;;4.01
72675;BMP280;60752;53.962;9.614;2023-03-01T16:29:19;102650.44;;;3.78
72675;BMP280;60752;53.962;9.614;2023-03-01T16:34:41;102644.03;;;3.65
72675;BMP280;60752;53.962;9.614;2023-03-01T16:40:03;102640.78;;;3.63
72675;BMP280;60752;53.962;9.614;2023-03-01T16:45:24;102641.69;;;3.56
72675;BMP280;60752;53.962;9.614;2023-03-01T16:50:55;102636.38;;;3.49
72675;BMP280;60752;53.962;9.614;2023-03-01T16:56:16;102638.00;;;3.42
72675;BMP280;60752;53.962;9.614;2023-03-01T17:01:39;102640.66;;;3.26
72675;BMP280;60752;53.962;9.614;2023-03-01T17:07:01;102642.00;;;3.05
72675;BMP280;60752;53.962;9.614;2023-03-01T17:12:22;102638.16;;;3.01
72675;BMP280;60752;53.962;9.614;2023-03-01T17:17:43;102633.81;;;2.94
72675;BMP280;60752;53.962;9.614;2023-03-01T17:23:05;102646.59;;;2.87
72675;BMP280;60752;53.962;9.614;2023-03-01T17:28:28;102642.25;;;2.79
72675;BMP280;60752;53.962;9.614;2023-03-01T17:33:49;102651.16;;;2.61
72675;BMP280;60752;53.962;9.614;2023-03-01T17:39:11;102654.88;;;2.34
72675;BMP280;60752;53.962;9.614;2023-03-01T17:44:33;102660.38;;;2.22
72675;BMP280;60752;53.962;9.614;2023-03-01T17:49:54;102659.06;;;2.10
72675;BMP280;60752;53.962;9.614;2023-03-01T17:55:16;102671.97;;;2.18
72675;BMP280;60752;53.962;9.614;2023-03-01T18:00:37;102678.28;;;2.16
72675;BMP280;60752;53.962;9.614;2023-03-01T18:05:58;102680.50;;;2.03
72675;BMP280;60752;53.962;9.614;2023-03-01T18:11:21;102686.44;;;1.95
72675;BMP280;60752;53.962;9.614;2023-03-01T18:16:42;102693.72;;;1.91
72675;BMP280;60752;53.962;9.614;2023-03-01T18:22:03;102698.91;;;2.08
72675;BMP280;60752;53.962;9.614;2023-03-01T18:27:25;102698.78;;;2.25
72675;BMP280;60752;53.962;9.614;2023-03-01T18:32:46;102701.69;;;2.22
72675;BMP280;60752;53.962;9.614;2023-03-01T18:38:06;102699.72;;;2.24
72675;BMP280;60752;53.962;9.614;2023-03-01T18:43:29;102695.88;;;2.20
72675;BMP280;60752;53.962;9.614;2023-03-01T18:48:52;102696.00;;;2.11
72675;BMP280;60752;53.962;9.614;2023-03-01T18:54:13;102705.97;;;1.97
72675;BMP280;60752;53.962;9.614;2023-03-01T18:59:35;102690.47;;;1.97
72675;BMP280;60752;53.962;9.614;2023-03-01T19:04:56;102695.31;;;2.00
72675;BMP280;60752;53.962;9.614;2023-03-01T19:10:17;102687.22;;;1.95
72675;BMP280;60752;53.962;9.614;2023-03-01T19:15:41;102693.41;;;2.03
72675;BMP280;60752;53.962;9.614;2023-03-01T19:21:03;102686.63;;;1.93
72675;BMP280;60752;53.962;9.614;2023-03-01T19:26:25;102685.97;;;1.99
72675;BMP280;60752;53.962;9.614;2023-03-01T19:31:47;102696.78;;;2.03
72675;BMP280;60752;53.962;9.614;2023-03-01T19:37:08;102696.44;;;1.98
72675;BMP280;60752;53.962;9.614;2023-03-01T19:42:29;102695.19;;;2.02
72675;BMP280;60752;53.962;9.614;2023-03-01T19:47:51;102699.53;;;1.93
72675;BMP280;60752;53.962;9.614;2023-03-01T19:53:12;102707.88;;;1.87
72675;BMP280;60752;53.962;9.614;2023-03-01T19:58:33;102709.31;;;1.82
72675;BMP280;60752;53.962;9.614;2023-03-01T20:03:55;102700.69;;;1.65
72675;BMP280;60752;53.962;9.614;2023-03-01T20:09:16;102702.28;;;1.58
72675;BMP280;60752;53.962;9.614;2023-03-01T20:14:37;102703.06;;;1.50
72675;BMP280;60752;53.962;9.614;2023-03-01T20:19:59;102696.06;;;1.42
72675;BMP280;60752;53.962;9.614;2023-03-01T20:25:20;102698.44;;;1.28
72675;BMP280;60752;53.962;9.614;2023-03-01T20:30:42;102697.47;;;1.29
72675;BMP280;60752;53.962;9.614;2023-03-01T20:36:05;102697.63;;;1.27
72675;BMP280;60752;53.962;9.614;2023-03-01T20:41:26;102707.00;;;1.10
72675;BMP280;60752;53.962;9.614;2023-03-01T20:46:47;102711.88;;;0.96
72675;BMP280;60752;53.962;9.614;2023-03-01T20:52:09;102721.22;;;0.97
72675;BMP280;60752;53.962;9.614;2023-03-01T20:57:30;102711.16;;;1.03
72675;BMP280;60752;53.962;9.614;2023-03-01T21:02:52;102705.06;;;1.12
72675;BMP280;60752;53.962;9.614;2023-03-01T21:08:17;102710.75;;;1.16
72675;BMP280;60752;53.962;9.614;2023-03-01T21:13:38;102705.50;;;1.26
72675;BMP280;60752;53.962;9.614;2023-03-01T21:18:59;102701.47;;;1.31
72675;BMP280;60752;53.962;9.614;2023-03-01T21:24:21;102696.38;;;1.39
72675;BMP280;60752;53.962;9.614;2023-03-01T21:29:43;102695.56;;;1.39
72675;BMP280;60752;53.962;9.614;2023-03-01T21:35:04;102701.81;;;1.36
72675;BMP280;60752;53.962;9.614;2023-03-01T21:40:26;102700.22;;;1.35
72675;BMP280;60752;53.962;9.614;2023-03-01T21:45:47;102692.03;;;1.40
72675;BMP280;60752;53.962;9.614;2023-03-01T21:51:10;102692.19;;;1.38
72675;BMP280;60752;53.962;9.614;2023-03-01T21:56:33;102688.47;;;1.41
72675;BMP280;60752;53.962;9.614;2023-03-01T22:01:54;102687.75;;;1.31
72675;BMP280;60752;53.962;9.614;2023-03-01T22:07:15;102674.22;;;1.21
72675;BMP280;60752;53.962;9.614;2023-03-01T22:12:37;102673.19;;;1.13
72675;BMP280;60752;53.962;9.614;2023-03-01T22:17:58;102671.06;;;1.09
72675;BMP280;60752;53.962;9.614;2023-03-01T22:23:18;102672.53;;;1.11
72675;BMP280;60752;53.962;9.614;2023-03-01T22:28:40;102682.75;;;1.21
72675;BMP280;60752;53.962;9.614;2023-03-01T22:34:02;102683.03;;;1.18
72675;BMP280;60752;53.962;9.614;2023-03-01T22:39:22;102686.22;;;1.12
72675;BMP280;60752;53.962;9.614;2023-03-01T22:44:45;102677.03;;;1.09
72675;BMP280;60752;53.962;9.614;2023-03-01T22:50:07;102683.00;;;1.10
72675;BMP280;60752;53.962;9.614;2023-03-01T22:55:28;102674.66;;;1.16
72675;BMP280;60752;53.962;9.614;2023-03-01T23:00:50;102675.63;;;1.15
72675;BMP280;60752;53.962;9.614;2023-03-01T23:06:11;102673.66;;;1.09
72675;BMP280;60752;53.962;9.614;2023-03-01T23:11:32;102681.31;;;1.01
72675;BMP280;60752;53.962;9.614;2023-03-01T23:16:54;102677.63;;;1.03
72675;BMP280;60752;53.962;9.614;2023-03-01T23:22:15;102681.38;;;1.09
72675;BMP280;60752;53.962;9.614;2023-03-01T23:27:36;102677.53;;;1.13
72675;BMP280;60752;53.962;9.614;2023-03-01T23:32:58;102676.44;;;1.15
72675;BMP280;60752;53.962;9.614;2023-03-01T23:38:19;102680.41;;;1.10
72675;BMP280;60752;53.962;9.614;2023-03-01T23:43:42;102676.22;;;1.09
72675;BMP280;60752;53.962;9.614;2023-03-01T23:49:05;102678.34;;;1.13
72675;BMP280;60752;53.962;9.614;2023-03-01T23:54:26;102681.38;;;1.09
72675;BMP280;60752;53.962;9.614;2023-03-01T23:59:46;102680.09;;;1.13
